sensor_id;sensor_type;location;lat;lon;timestamp;P1;durP1;ratioP1;P2;durP2;ratioP2
80127;SDS011;69440;52.118;5.408;2023-08-08T00:02:10;8.00;;;3.00;;
80127;SDS011;69440;52.118;5.408;2023-08-08T00:04:37;8.50;;;2.53;;
80127;SDS011;69440;52.118;5.408;2023-08-08T00:07:03;10.48;;;2.60;;
80127;SDS011;69440;52.118;5.408;2023-08-08T00:09:30;7.60;;;2.47;;
80127;SDS011;69440;52.118;5.408;2023-08-08T00:11:56;5.65;;;2.70;;
80127;SDS011;69440;52.118;5.408;2023-08-08T00:14:24;8.80;;;2.60;;
80127;SDS011;69440;52.118;5.408;2023-08-08T00:16:51;4.57;;;2.05;;
80127;SDS011;69440;52.118;5.408;2023-08-08T00:19:17;9.80;;;2.40;;
80127;SDS011;69440;52.118;5.408;2023-08-08T00:21:44;7.10;;;2.22;;
80127;SDS011;69440;52.118;5.408;2023-08-08T00:24:10;7.82;;;3.03;;
80127;SDS011;69440;52.118;5.408;2023-08-08T00:26:37;5.70;;;2.10;;
80127;SDS011;69440;52.118;5.408;2023-08-08T00:29:03;6.55;;;2.10;;
80127;SDS011;69440;52.118;5.408;2023-08-08T00:31:30;7.80;;;2.47;;
80127;SDS011;69440;52.118;5.408;2023-08-08T00:33:56;7.10;;;2.65;;
80127;SDS011;69440;52.118;5.408;2023-08-08T00:36:23;8.48;;;2.30;;
80127;SDS011;69440;52.118;5.408;2023-08-08T00:38:49;8.82;;;2.25;;
80127;SDS011;69440;52.118;5.408;2023-08-08T00:41:16;8.00;;;2.03;;
80127;SDS011;69440;52.118;5.408;2023-08-08T00:43:42;7.38;;;2.10;;
80127;SDS011;69440;52.118;5.408;2023-08-08T00:46:10;7.40;;;2.20;;
80127;SDS011;69440;52.118;5.408;2023-08-08T00:48:37;10.40;;;2.03;;
80127;SDS011;69440;52.118;5.408;2023-08-08T00:51:04;7.65;;;2.10;;
80127;SDS011;69440;52.118;5.408;2023-08-08T00:53:31;9.10;;;2.47;;
80127;SDS011;69440;52.118;5.408;2023-08-08T00:55:58;8.07;;;2.40;;
80127;SDS011;69440;52.118;5.408;2023-08-08T00:58:25;8.00;;;2.35;;
80127;SDS011;69440;52.118;5.408;2023-08-08T01:00:52;11.45;;;2.40;;
80127;SDS011;69440;52.118;5.408;2023-08-08T01:03:23;8.68;;;2.20;;
80127;SDS011;69440;52.118;5.408;2023-08-08T01:05:59;9.88;;;1.98;;
80127;SDS011;69440;52.118;5.408;2023-08-08T01:08:57;7.97;;;2.80;;
80127;SDS011;69440;52.118;5.408;2023-08-08T01:11:27;10.30;;;2.78;;
80127;SDS011;69440;52.118;5.408;2023-08-08T01:13:56;10.10;;;2.17;;
80127;SDS011;69440;52.118;5.408;2023-08-08T01:16:24;5.68;;;1.90;;
80127;SDS011;69440;52.118;5.408;2023-08-08T01:18:53;13.13;;;2.58;;
80127;SDS011;69440;52.118;5.408;2023-08-08T01:21:20;8.98;;;2.20;;
80127;SDS011;69440;52.118;5.408;2023-08-08T01:23:56;9.75;;;2.20;;
80127;SDS011;69440;52.118;5.408;2023-08-08T01:26:31;7.00;;;2.03;;
80127;SDS011;69440;52.118;5.408;2023-08-08T01:28:58;10.23;;;2.20;;
80127;SDS011;69440;52.118;5.408;2023-08-08T01:31:24;8.90;;;2.30;;
80127;SDS011;69440;52.118;5.408;2023-08-08T01:33:51;8.15;;;2.10;;
80127;SDS011;69440;52.118;5.408;2023-08-08T01:36:22;7.32;;;1.85;;
80127;SDS011;69440;52.118;5.408;2023-08-08T01:38:54;7.85;;;2.10;;
80127;SDS011;69440;52.118;5.408;2023-08-08T01:41:31;7.22;;;2.08;;
80127;SDS011;69440;52.118;5.408;2023-08-08T01:43:59;9.88;;;2.22;;
80127;SDS011;69440;52.118;5.408;2023-08-08T01:46:28;6.20;;;1.63;;
80127;SDS011;69440;52.118;5.408;2023-08-08T01:48:57;12.55;;;2.05;;
80127;SDS011;69440;52.118;5.408;2023-08-08T01:51:26;10.23;;;2.40;;
80127;SDS011;69440;52.118;5.408;2023-08-08T01:53:53;10.48;;;2.22;;
80127;SDS011;69440;52.118;5.408;2023-08-08T01:56:20;8.23;;;2.20;;
80127;SDS011;69440;52.118;5.408;2023-08-08T01:58:46;9.68;;;2.30;;
80127;SDS011;69440;52.118;5.408;2023-08-08T02:01:13;11.23;;;2.47;;
80127;SDS011;69440;52.118;5.408;2023-08-08T02:03:39;11.07;;;2.15;;
80127;SDS011;69440;52.118;5.408;2023-08-08T02:06:06;6.68;;;2.00;;
80127;SDS011;69440;52.118;5.408;2023-08-08T02:08:32;9.45;;;2.03;;
80127;SDS011;69440;52.118;5.408;2023-08-08T02:10:59;6.72;;;2.05;;
80127;SDS011;69440;52.118;5.408;2023-08-08T02:13:26;9.13;;;2.10;;
80127;SDS011;69440;52.118;5.408;2023-08-08T02:15:52;12.63;;;2.40;;
80127;SDS011;69440;52.118;5.408;2023-08-08T02:18:19;10.35;;;2.30;;
80127;SDS011;69440;52.118;5.408;2023-08-08T02:20:45;9.05;;;2.20;;
80127;SDS011;69440;52.118;5.408;2023-08-08T02:23:12;11.52;;;2.67;;
80127;SDS011;69440;52.118;5.408;2023-08-08T02:25:38;8.45;;;2.40;;
80127;SDS011;69440;52.118;5.408;2023-08-08T02:28:05;10.63;;;2.40;;
80127;SDS011;69440;52.118;5.408;2023-08-08T02:30:31;8.60;;;2.53;;
80127;SDS011;69440;52.118;5.408;2023-08-08T02:32:58;8.93;;;2.53;;
80127;SDS011;69440;52.118;5.408;2023-08-08T02:35:25;9.00;;;2.33;;
80127;SDS011;69440;52.118;5.408;2023-08-08T02:37:51;9.10;;;2.20;;
80127;SDS011;69440;52.118;5.408;2023-08-08T02:40:18;11.88;;;2.72;;
80127;SDS011;69440;52.118;5.408;2023-08-08T02:42:44;6.90;;;2.13;;
80127;SDS011;69440;52.118;5.408;2023-08-08T02:45:11;12.38;;;2.67;;
80127;SDS011;69440;52.118;5.408;2023-08-08T02:47:37;9.75;;;2.22;;
80127;SDS011;69440;52.118;5.408;2023-08-08T02:50:04;5.82;;;2.28;;
80127;SDS011;69440;52.118;5.408;2023-08-08T02:52:31;13.73;;;2.72;;
80127;SDS011;69440;52.118;5.408;2023-08-08T02:54:57;13.27;;;2.92;;
80127;SDS011;69440;52.118;5.408;2023-08-08T02:57:24;6.70;;;2.33;;
80127;SDS011;69440;52.118;5.408;2023-08-08T02:59:50;9.25;;;2.70;;
80127;SDS011;69440;52.118;5.408;2023-08-08T03:02:17;7.45;;;2.70;;
80127;SDS011;69440;52.118;5.408;2023-08-08T03:04:43;11.25;;;3.25;;
80127;SDS011;69440;52.118;5.408;2023-08-08T03:07:10;13.13;;;2.33;;
80127;SDS011;69440;52.118;5.408;2023-08-08T03:09:36;11.70;;;3.10;;
80127;SDS011;69440;52.118;5.408;2023-08-08T03:12:03;7.40;;;2.78;;
80127;SDS011;69440;52.118;5.408;2023-08-08T03:14:30;9.90;;;2.22;;
80127;SDS011;69440;52.118;5.408;2023-08-08T03:16:56;8.18;;;2.35;;
80127;SDS011;69440;52.118;5.408;2023-08-08T03:19:24;5.53;;;2.40;;
80127;SDS011;69440;52.118;5.408;2023-08-08T03:21:51;8.02;;;2.70;;
80127;SDS011;69440;52.118;5.408;2023-08-08T03:24:17;9.30;;;2.75;;
80127;SDS011;69440;52.118;5.408;2023-08-08T03:26:44;9.15;;;2.83;;
80127;SDS011;69440;52.118;5.408;2023-08-08T03:29:10;7.38;;;2.90;;
80127;SDS011;69440;52.118;5.408;2023-08-08T03:31:38;11.25;;;2.30;;
80127;SDS011;69440;52.118;5.408;2023-08-08T03:34:05;12.18;;;2.90;;
80127;SDS011;69440;52.118;5.408;2023-08-08T03:36:31;10.52;;;3.50;;
80127;SDS011;69440;52.118;5.408;2023-08-08T03:38:58;11.88;;;3.05;;
80127;SDS011;69440;52.118;5.408;2023-08-08T03:41:25;11.93;;;2.75;;
80127;SDS011;69440;52.118;5.408;2023-08-08T03:43:51;8.45;;;2.58;;
80127;SDS011;69440;52.118;5.408;2023-08-08T03:46:18;12.30;;;2.97;;
80127;SDS011;69440;52.118;5.408;2023-08-08T03:48:44;5.32;;;2.75;;
80127;SDS011;69440;52.118;5.408;2023-08-08T03:51:11;8.52;;;2.70;;
80127;SDS011;69440;52.118;5.408;2023-08-08T03:53:38;7.93;;;3.05;;
80127;SDS011;69440;52.118;5.408;2023-08-08T03:56:05;6.30;;;2.88;;
80127;SDS011;69440;52.118;5.408;2023-08-08T03:58:33;10.32;;;3.05;;
80127;SDS011;69440;52.118;5.408;2023-08-08T04:01:00;9.20;;;2.97;;
80127;SDS011;69440;52.118;5.408;2023-08-08T04:03:26;10.05;;;3.33;;
80127;SDS011;69440;52.118;5.408;2023-08-08T04:05:53;7.43;;;3.22;;
80127;SDS011;69440;52.118;5.408;2023-08-08T04:08:19;7.18;;;3.00;;
80127;SDS011;69440;52.118;5.408;2023-08-08T04:10:48;8.48;;;2.88;;
80127;SDS011;69440;52.118;5.408;2023-08-08T04:13:15;5.57;;;3.15;;
80127;SDS011;69440;52.118;5.408;2023-08-08T04:15:41;8.60;;;3.20;;
80127;SDS011;69440;52.118;5.408;2023-08-08T04:18:08;7.75;;;2.83;;
80127;SDS011;69440;52.118;5.408;2023-08-08T04:20:34;7.32;;;3.03;;
80127;SDS011;69440;52.118;5.408;2023-08-08T04:23:00;5.97;;;2.75;;
80127;SDS011;69440;52.118;5.408;2023-08-08T04:25:27;9.00;;;2.55;;
80127;SDS011;69440;52.118;5.408;2023-08-08T04:27:54;7.25;;;2.70;;
80127;SDS011;69440;52.118;5.408;2023-08-08T04:30:21;6.05;;;2.45;;
80127;SDS011;69440;52.118;5.408;2023-08-08T04:32:48;6.18;;;2.53;;
80127;SDS011;69440;52.118;5.408;2023-08-08T04:35:14;7.32;;;2.45;;
80127;SDS011;69440;52.118;5.408;2023-08-08T04:37:41;6.45;;;2.63;;
80127;SDS011;69440;52.118;5.408;2023-08-08T04:40:08;5.35;;;2.80;;
80127;SDS011;69440;52.118;5.408;2023-08-08T04:42:35;8.93;;;2.63;;
80127;SDS011;69440;52.118;5.408;2023-08-08T04:45:01;8.32;;;2.60;;
80127;SDS011;69440;52.118;5.408;2023-08-08T04:47:28;11.88;;;2.75;;
80127;SDS011;69440;52.118;5.408;2023-08-08T04:49:54;9.32;;;2.53;;
80127;SDS011;69440;52.118;5.408;2023-08-08T04:52:20;6.72;;;2.80;;
80127;SDS011;69440;52.118;5.408;2023-08-08T04:54:47;7.05;;;2.67;;
80127;SDS011;69440;52.118;5.408;2023-08-08T04:57:13;7.60;;;2.33;;
80127;SDS011;69440;52.118;5.408;2023-08-08T04:59:40;6.82;;;2.55;;
80127;SDS011;69440;52.118;5.408;2023-08-08T05:02:06;6.18;;;2.45;;
80127;SDS011;69440;52.118;5.408;2023-08-08T05:04:33;10.73;;;2.50;;
80127;SDS011;69440;52.118;5.408;2023-08-08T05:06:59;7.13;;;2.50;;
80127;SDS011;69440;52.118;5.408;2023-08-08T05:09:26;8.38;;;2.45;;
80127;SDS011;69440;52.118;5.408;2023-08-08T05:11:52;6.85;;;2.22;;
80127;SDS011;69440;52.118;5.408;2023-08-08T05:14:19;6.55;;;2.20;;
80127;SDS011;69440;52.118;5.408;2023-08-08T05:16:46;10.65;;;2.90;;
80127;SDS011;69440;52.118;5.408;2023-08-08T05:19:12;7.72;;;2.88;;
80127;SDS011;69440;52.118;5.408;2023-08-08T05:21:39;8.27;;;2.40;;
80127;SDS011;69440;52.118;5.408;2023-08-08T05:24:05;8.07;;;2.58;;
80127;SDS011;69440;52.118;5.408;2023-08-08T05:26:32;8.43;;;2.80;;
80127;SDS011;69440;52.118;5.408;2023-08-08T05:28:58;5.55;;;2.35;;
80127;SDS011;69440;52.118;5.408;2023-08-08T05:31:25;5.00;;;2.30;;
80127;SDS011;69440;52.118;5.408;2023-08-08T05:33:51;8.68;;;2.50;;
80127;SDS011;69440;52.118;5.408;2023-08-08T05:36:18;10.20;;;2.63;;
80127;SDS011;69440;52.118;5.408;2023-08-08T05:38:44;7.95;;;2.42;;
80127;SDS011;69440;52.118;5.408;2023-08-08T05:41:10;9.38;;;2.63;;
80127;SDS011;69440;52.118;5.408;2023-08-08T05:43:37;6.63;;;2.30;;
80127;SDS011;69440;52.118;5.408;2023-08-08T05:46:03;8.77;;;2.50;;
80127;SDS011;69440;52.118;5.408;2023-08-08T05:48:30;4.00;;;1.65;;
80127;SDS011;69440;52.118;5.408;2023-08-08T05:50:56;5.35;;;1.98;;
80127;SDS011;69440;52.118;5.408;2023-08-08T05:53:25;5.18;;;1.90;;
80127;SDS011;69440;52.118;5.408;2023-08-08T05:55:52;5.10;;;1.85;;
80127;SDS011;69440;52.118;5.408;2023-08-08T05:58:18;5.93;;;1.70;;
80127;SDS011;69440;52.118;5.408;2023-08-08T06:00:45;7.43;;;1.60;;
80127;SDS011;69440;52.118;5.408;2023-08-08T06:03:11;6.40;;;1.60;;
80127;SDS011;69440;52.118;5.408;2023-08-08T06:05:38;3.40;;;1.73;;
80127;SDS011;69440;52.118;5.408;2023-08-08T06:08:04;4.70;;;1.73;;
80127;SDS011;69440;52.118;5.408;2023-08-08T06:10:33;6.88;;;1.90;;
80127;SDS011;69440;52.118;5.408;2023-08-08T06:13:00;5.70;;;1.60;;
80127;SDS011;69440;52.118;5.408;2023-08-08T06:15:27;4.55;;;2.30;;
80127;SDS011;69440;52.118;5.408;2023-08-08T06:17:53;5.45;;;1.60;;
80127;SDS011;69440;52.118;5.408;2023-08-08T06:20:20;3.97;;;1.13;;
80127;SDS011;69440;52.118;5.408;2023-08-08T06:22:48;7.90;;;1.73;;
80127;SDS011;69440;52.118;5.408;2023-08-08T06:25:15;5.50;;;1.35;;
80127;SDS011;69440;52.118;5.408;2023-08-08T06:27:41;6.10;;;1.45;;
80127;SDS011;69440;52.118;5.408;2023-08-08T06:30:08;3.10;;;1.05;;
80127;SDS011;69440;52.118;5.408;2023-08-08T06:32:35;4.65;;;1.42;;
80127;SDS011;69440;52.118;5.408;2023-08-08T06:35:02;3.67;;;1.30;;
80127;SDS011;69440;52.118;5.408;2023-08-08T06:37:28;3.80;;;1.25;;
80127;SDS011;69440;52.118;5.408;2023-08-08T06:39:55;3.30;;;1.27;;
80127;SDS011;69440;52.118;5.408;2023-08-08T06:42:21;5.05;;;1.38;;
80127;SDS011;69440;52.118;5.408;2023-08-08T06:44:50;3.65;;;1.10;;
80127;SDS011;69440;52.118;5.408;2023-08-08T06:47:17;5.78;;;1.13;;
80127;SDS011;69440;52.118;5.408;2023-08-08T06:49:43;3.40;;;1.00;;
80127;SDS011;69440;52.118;5.408;2023-08-08T06:52:10;3.85;;;1.00;;
80127;SDS011;69440;52.118;5.408;2023-08-08T06:54:36;3.97;;;1.67;;
80127;SDS011;69440;52.118;5.408;2023-08-08T06:57:03;3.75;;;0.98;;
80127;SDS011;69440;52.118;5.408;2023-08-08T06:59:30;1.20;;;0.70;;
80127;SDS011;69440;52.118;5.408;2023-08-08T07:01:56;4.03;;;0.80;;
80127;SDS011;69440;52.118;5.408;2023-08-08T07:04:23;2.60;;;0.90;;
80127;SDS011;69440;52.118;5.408;2023-08-08T07:06:50;4.13;;;0.98;;
80127;SDS011;69440;52.118;5.408;2023-08-08T07:09:17;2.33;;;1.00;;
80127;SDS011;69440;52.118;5.408;2023-08-08T07:11:43;4.07;;;0.85;;
80127;SDS011;69440;52.118;5.408;2023-08-08T07:14:10;1.63;;;0.70;;
80127;SDS011;69440;52.118;5.408;2023-08-08T07:16:36;6.53;;;1.40;;
80127;SDS011;69440;52.118;5.408;2023-08-08T07:19:02;3.10;;;0.70;;
80127;SDS011;69440;52.118;5.408;2023-08-08T07:21:29;2.78;;;0.80;;
80127;SDS011;69440;52.118;5.408;2023-08-08T07:23:55;4.95;;;0.70;;
80127;SDS011;69440;52.118;5.408;2023-08-08T07:26:23;4.00;;;1.35;;
80127;SDS011;69440;52.118;5.408;2023-08-08T07:28:50;1.35;;;0.70;;
80127;SDS011;69440;52.118;5.408;2023-08-08T07:31:16;4.72;;;0.80;;
80127;SDS011;69440;52.118;5.408;2023-08-08T07:33:43;4.32;;;0.80;;
80127;SDS011;69440;52.118;5.408;2023-08-08T07:36:09;3.63;;;0.80;;
80127;SDS011;69440;52.118;5.408;2023-08-08T07:38:36;2.25;;;0.73;;
80127;SDS011;69440;52.118;5.408;2023-08-08T07:41:04;2.75;;;0.70;;
80127;SDS011;69440;52.118;5.408;2023-08-08T07:43:33;2.20;;;0.90;;
80127;SDS011;69440;52.118;5.408;2023-08-08T07:46:01;2.42;;;0.60;;
80127;SDS011;69440;52.118;5.408;2023-08-08T07:48:27;2.13;;;0.80;;
80127;SDS011;69440;52.118;5.408;2023-08-08T07:50:54;2.83;;;0.90;;
80127;SDS011;69440;52.118;5.408;2023-08-08T07:53:21;2.67;;;0.50;;
80127;SDS011;69440;52.118;5.408;2023-08-08T07:55:48;1.67;;;0.50;;
80127;SDS011;69440;52.118;5.408;2023-08-08T07:58:14;3.25;;;1.10;;
80127;SDS011;69440;52.118;5.408;2023-08-08T08:00:41;1.45;;;0.70;;
80127;SDS011;69440;52.118;5.408;2023-08-08T08:03:08;2.38;;;0.95;;
80127;SDS011;69440;52.118;5.408;2023-08-08T08:05:34;4.97;;;0.77;;
80127;SDS011;69440;52.118;5.408;2023-08-08T08:08:02;6.03;;;1.10;;
80127;SDS011;69440;52.118;5.408;2023-08-08T08:10:28;4.88;;;0.90;;
80127;SDS011;69440;52.118;5.408;2023-08-08T08:12:55;2.30;;;0.75;;
80127;SDS011;69440;52.118;5.408;2023-08-08T08:15:25;4.65;;;0.98;;
80127;SDS011;69440;52.118;5.408;2023-08-08T08:17:51;1.42;;;0.70;;
80127;SDS011;69440;52.118;5.408;2023-08-08T08:20:18;2.33;;;0.70;;
80127;SDS011;69440;52.118;5.408;2023-08-08T08:22:45;1.27;;;0.60;;
80127;SDS011;69440;52.118;5.408;2023-08-08T08:25:12;3.10;;;0.60;;
80127;SDS011;69440;52.118;5.408;2023-08-08T08:27:40;4.82;;;0.70;;
80127;SDS011;69440;52.118;5.408;2023-08-08T08:30:07;2.20;;;0.70;;
80127;SDS011;69440;52.118;5.408;2023-08-08T08:32:37;1.10;;;0.43;;
80127;SDS011;69440;52.118;5.408;2023-08-08T08:35:05;2.60;;;0.60;;
80127;SDS011;69440;52.118;5.408;2023-08-08T08:37:33;1.67;;;0.65;;
80127;SDS011;69440;52.118;5.408;2023-08-08T08:40:00;2.83;;;0.70;;
80127;SDS011;69440;52.118;5.408;2023-08-08T08:42:27;2.50;;;0.70;;
80127;SDS011;69440;52.118;5.408;2023-08-08T08:44:56;1.90;;;0.60;;
80127;SDS011;69440;52.118;5.408;2023-08-08T08:47:25;0.93;;;0.52;;
80127;SDS011;69440;52.118;5.408;2023-08-08T08:49:56;1.98;;;0.55;;
80127;SDS011;69440;52.118;5.408;2023-08-08T08:52:23;3.00;;;0.60;;
80127;SDS011;69440;52.118;5.408;2023-08-08T08:54:51;2.25;;;0.88;;
80127;SDS011;69440;52.118;5.408;2023-08-08T08:57:18;1.60;;;0.50;;
80127;SDS011;69440;52.118;5.408;2023-08-08T08:59:46;1.80;;;0.50;;
80127;SDS011;69440;52.118;5.408;2023-08-08T09:02:13;1.45;;;0.50;;
80127;SDS011;69440;52.118;5.408;2023-08-08T09:04:40;1.50;;;0.50;;
80127;SDS011;69440;52.118;5.408;2023-08-08T09:07:06;1.55;;;0.55;;
80127;SDS011;69440;52.118;5.408;2023-08-08T09:09:34;1.92;;;0.43;;
80127;SDS011;69440;52.118;5.408;2023-08-08T09:12:02;1.23;;;0.80;;
80127;SDS011;69440;52.118;5.408;2023-08-08T09:14:31;3.45;;;0.50;;
80127;SDS011;69440;52.118;5.408;2023-08-08T09:16:58;1.48;;;0.45;;
80127;SDS011;69440;52.118;5.408;2023-08-08T09:19:25;2.17;;;0.40;;
80127;SDS011;69440;52.118;5.408;2023-08-08T09:21:52;1.27;;;0.50;;
80127;SDS011;69440;52.118;5.408;2023-08-08T09:24:18;1.42;;;0.50;;
80127;SDS011;69440;52.118;5.408;2023-08-08T09:26:45;1.63;;;0.70;;
80127;SDS011;69440;52.118;5.408;2023-08-08T09:29:12;2.50;;;0.75;;
80127;SDS011;69440;52.118;5.408;2023-08-08T09:31:41;1.00;;;0.52;;
80127;SDS011;69440;52.118;5.408;2023-08-08T09:34:07;1.17;;;0.60;;
80127;SDS011;69440;52.118;5.408;2023-08-08T09:36:34;1.08;;;0.55;;
80127;SDS011;69440;52.118;5.408;2023-08-08T09:39:03;1.73;;;0.80;;
80127;SDS011;69440;52.118;5.408;2023-08-08T09:41:31;4.03;;;0.70;;
80127;SDS011;69440;52.118;5.408;2023-08-08T09:43:58;2.10;;;0.70;;
80127;SDS011;69440;52.118;5.408;2023-08-08T09:46:25;3.53;;;0.60;;
80127;SDS011;69440;52.118;5.408;2023-08-08T09:48:51;1.55;;;0.60;;
80127;SDS011;69440;52.118;5.408;2023-08-08T09:51:19;1.52;;;0.65;;
80127;SDS011;69440;52.118;5.408;2023-08-08T09:53:47;1.70;;;0.70;;
80127;SDS011;69440;52.118;5.408;2023-08-08T09:56:14;1.67;;;0.63;;
80127;SDS011;69440;52.118;5.408;2023-08-08T09:58:42;3.30;;;0.50;;
80127;SDS011;69440;52.118;5.408;2023-08-08T10:01:09;1.85;;;0.57;;
80127;SDS011;69440;52.118;5.408;2023-08-08T10:03:39;0.98;;;0.63;;
80127;SDS011;69440;52.118;5.408;2023-08-08T10:06:09;3.70;;;0.73;;
80127;SDS011;69440;52.118;5.408;2023-08-08T10:08:36;1.63;;;0.65;;
80127;SDS011;69440;52.118;5.408;2023-08-08T10:11:02;2.17;;;0.50;;
80127;SDS011;69440;52.118;5.408;2023-08-08T10:13:33;2.38;;;0.70;;
80127;SDS011;69440;52.118;5.408;2023-08-08T10:16:03;2.45;;;0.70;;
80127;SDS011;69440;52.118;5.408;2023-08-08T10:18:33;2.45;;;0.80;;
80127;SDS011;69440;52.118;5.408;2023-08-08T10:21:03;0.77;;;0.55;;
80127;SDS011;69440;52.118;5.408;2023-08-08T10:23:35;1.75;;;0.80;;
80127;SDS011;69440;52.118;5.408;2023-08-08T10:26:03;2.22;;;0.80;;
80127;SDS011;69440;52.118;5.408;2023-08-08T10:28:31;2.30;;;0.75;;
80127;SDS011;69440;52.118;5.408;2023-08-08T10:31:00;5.38;;;0.90;;
80127;SDS011;69440;52.118;5.408;2023-08-08T10:33:42;3.72;;;0.80;;
80127;SDS011;69440;52.118;5.408;2023-08-08T10:36:09;3.05;;;0.88;;
80127;SDS011;69440;52.118;5.408;2023-08-08T10:41:10;4.78;;;0.80;;
80127;SDS011;69440;52.118;5.408;2023-08-08T10:43:38;1.40;;;0.60;;
80127;SDS011;69440;52.118;5.408;2023-08-08T10:46:32;3.95;;;0.73;;
80127;SDS011;69440;52.118;5.408;2023-08-08T10:49:00;3.35;;;0.70;;
80127;SDS011;69440;52.118;5.408;2023-08-08T10:51:38;1.83;;;0.90;;
80127;SDS011;69440;52.118;5.408;2023-08-08T10:54:13;1.88;;;0.70;;
80127;SDS011;69440;52.118;5.408;2023-08-08T10:56:51;2.40;;;0.80;;
80127;SDS011;69440;52.118;5.408;2023-08-08T10:59:22;2.63;;;0.80;;
80127;SDS011;69440;52.118;5.408;2023-08-08T11:02:07;1.75;;;0.57;;
80127;SDS011;69440;52.118;5.408;2023-08-08T11:04:34;1.20;;;0.57;;
80127;SDS011;69440;52.118;5.408;2023-08-08T11:07:01;4.43;;;0.90;;
80127;SDS011;69440;52.118;5.408;2023-08-08T11:09:28;4.28;;;0.70;;
80127;SDS011;69440;52.118;5.408;2023-08-08T11:11:55;1.02;;;0.70;;
80127;SDS011;69440;52.118;5.408;2023-08-08T11:14:22;2.13;;;0.73;;
80127;SDS011;69440;52.118;5.408;2023-08-08T11:16:49;2.13;;;0.70;;
80127;SDS011;69440;52.118;5.408;2023-08-08T11:19:18;2.28;;;0.80;;
80127;SDS011;69440;52.118;5.408;2023-08-08T11:21:49;1.92;;;0.60;;
80127;SDS011;69440;52.118;5.408;2023-08-08T11:24:16;1.65;;;0.60;;
80127;SDS011;69440;52.118;5.408;2023-08-08T11:26:43;1.45;;;0.55;;
80127;SDS011;69440;52.118;5.408;2023-08-08T11:29:13;3.42;;;0.65;;
80127;SDS011;69440;52.118;5.408;2023-08-08T11:31:40;1.52;;;0.55;;
80127;SDS011;69440;52.118;5.408;2023-08-08T11:34:07;3.22;;;0.70;;
80127;SDS011;69440;52.118;5.408;2023-08-08T11:36:36;1.80;;;0.63;;
80127;SDS011;69440;52.118;5.408;2023-08-08T11:39:03;1.33;;;0.70;;
80127;SDS011;69440;52.118;5.408;2023-08-08T11:41:34;1.13;;;0.57;;
80127;SDS011;69440;52.118;5.408;2023-08-08T11:44:02;3.03;;;0.60;;
80127;SDS011;69440;52.118;5.408;2023-08-08T11:46:30;2.25;;;0.60;;
80127;SDS011;69440;52.118;5.408;2023-08-08T11:49:06;3.10;;;0.77;;
80127;SDS011;69440;52.118;5.408;2023-08-08T11:51:33;2.28;;;0.80;;
80127;SDS011;69440;52.118;5.408;2023-08-08T11:54:01;2.78;;;0.80;;
80127;SDS011;69440;52.118;5.408;2023-08-08T11:56:33;1.92;;;0.80;;
80127;SDS011;69440;52.118;5.408;2023-08-08T11:59:00;2.63;;;0.60;;
80127;SDS011;69440;52.118;5.408;2023-08-08T12:01:28;2.03;;;0.60;;
80127;SDS011;69440;52.118;5.408;2023-08-08T12:03:56;2.45;;;0.85;;
80127;SDS011;69440;52.118;5.408;2023-08-08T12:06:27;3.13;;;0.57;;
80127;SDS011;69440;52.118;5.408;2023-08-08T12:08:54;2.42;;;0.63;;
80127;SDS011;69440;52.118;5.408;2023-08-08T12:11:21;1.60;;;0.75;;
80127;SDS011;69440;52.118;5.408;2023-08-08T12:13:51;3.25;;;0.63;;
80127;SDS011;69440;52.118;5.408;2023-08-08T12:16:17;1.92;;;0.80;;
80127;SDS011;69440;52.118;5.408;2023-08-08T12:18:44;2.15;;;0.90;;
80127;SDS011;69440;52.118;5.408;2023-08-08T12:21:11;2.17;;;0.68;;
80127;SDS011;69440;52.118;5.408;2023-08-08T12:23:37;2.00;;;0.60;;
80127;SDS011;69440;52.118;5.408;2023-08-08T12:26:04;2.65;;;0.70;;
80127;SDS011;69440;52.118;5.408;2023-08-08T12:28:32;1.90;;;0.70;;
80127;SDS011;69440;52.118;5.408;2023-08-08T12:30:59;2.45;;;0.70;;
80127;SDS011;69440;52.118;5.408;2023-08-08T12:33:25;2.65;;;0.63;;
80127;SDS011;69440;52.118;5.408;2023-08-08T12:35:52;2.05;;;0.70;;
80127;SDS011;69440;52.118;5.408;2023-08-08T12:38:19;1.60;;;0.60;;
80127;SDS011;69440;52.118;5.408;2023-08-08T12:40:45;2.40;;;0.70;;
80127;SDS011;69440;52.118;5.408;2023-08-08T12:43:12;1.98;;;0.70;;
80127;SDS011;69440;52.118;5.408;2023-08-08T12:45:40;1.55;;;0.70;;
80127;SDS011;69440;52.118;5.408;2023-08-08T12:48:06;0.90;;;0.57;;
80127;SDS011;69440;52.118;5.408;2023-08-08T12:50:33;3.08;;;0.70;;
80127;SDS011;69440;52.118;5.408;2023-08-08T12:52:59;3.33;;;0.80;;
80127;SDS011;69440;52.118;5.408;2023-08-08T12:55:26;3.35;;;0.60;;
80127;SDS011;69440;52.118;5.408;2023-08-08T12:57:52;2.55;;;1.00;;
80127;SDS011;69440;52.118;5.408;2023-08-08T13:00:19;1.13;;;0.60;;
80127;SDS011;69440;52.118;5.408;2023-08-08T13:02:45;4.25;;;0.65;;
80127;SDS011;69440;52.118;5.408;2023-08-08T13:05:12;2.03;;;0.77;;
80127;SDS011;69440;52.118;5.408;2023-08-08T13:07:39;1.50;;;0.65;;
80127;SDS011;69440;52.118;5.408;2023-08-08T13:10:05;2.30;;;0.65;;
80127;SDS011;69440;52.118;5.408;2023-08-08T13:12:32;1.27;;;0.57;;
80127;SDS011;69440;52.118;5.408;2023-08-08T13:15:00;1.20;;;0.60;;
80127;SDS011;69440;52.118;5.408;2023-08-08T13:17:26;1.95;;;0.70;;
80127;SDS011;69440;52.118;5.408;2023-08-08T13:19:53;2.28;;;0.73;;
80127;SDS011;69440;52.118;5.408;2023-08-08T13:22:20;2.38;;;0.80;;
80127;SDS011;69440;52.118;5.408;2023-08-08T13:24:47;1.50;;;0.70;;
80127;SDS011;69440;52.118;5.408;2023-08-08T13:27:13;1.85;;;0.60;;
80127;SDS011;69440;52.118;5.408;2023-08-08T13:29:40;2.38;;;0.70;;
80127;SDS011;69440;52.118;5.408;2023-08-08T13:32:06;1.95;;;0.70;;
80127;SDS011;69440;52.118;5.408;2023-08-08T13:34:33;2.13;;;0.88;;
80127;SDS011;69440;52.118;5.408;2023-08-08T13:36:59;1.92;;;0.80;;
80127;SDS011;69440;52.118;5.408;2023-08-08T13:39:26;2.25;;;0.60;;
80127;SDS011;69440;52.118;5.408;2023-08-08T13:41:52;2.25;;;0.73;;
80127;SDS011;69440;52.118;5.408;2023-08-08T13:44:18;4.50;;;1.20;;
80127;SDS011;69440;52.118;5.408;2023-08-08T13:46:45;3.08;;;0.70;;
80127;SDS011;69440;52.118;5.408;2023-08-08T13:49:12;3.08;;;0.75;;
80127;SDS011;69440;52.118;5.408;2023-08-08T13:51:38;3.53;;;0.85;;
80127;SDS011;69440;52.118;5.408;2023-08-08T13:54:06;3.95;;;0.80;;
80127;SDS011;69440;52.118;5.408;2023-08-08T13:56:33;3.47;;;0.88;;
80127;SDS011;69440;52.118;5.408;2023-08-08T13:59:02;1.75;;;0.80;;
80127;SDS011;69440;52.118;5.408;2023-08-08T14:01:29;3.58;;;0.90;;
80127;SDS011;69440;52.118;5.408;2023-08-08T14:03:55;1.98;;;0.70;;
80127;SDS011;69440;52.118;5.408;2023-08-08T14:06:22;5.03;;;0.80;;
80127;SDS011;69440;52.118;5.408;2023-08-08T14:08:48;3.20;;;0.80;;
80127;SDS011;69440;52.118;5.408;2023-08-08T14:11:15;2.03;;;0.80;;
80127;SDS011;69440;52.118;5.408;2023-08-08T14:13:41;2.80;;;0.60;;
80127;SDS011;69440;52.118;5.408;2023-08-08T14:16:08;1.67;;;0.80;;
80127;SDS011;69440;52.118;5.408;2023-08-08T14:18:34;3.13;;;0.75;;
80127;SDS011;69440;52.118;5.408;2023-08-08T14:21:01;3.10;;;0.98;;
80127;SDS011;69440;52.118;5.408;2023-08-08T14:23:30;2.20;;;0.73;;
80127;SDS011;69440;52.118;5.408;2023-08-08T14:25:57;5.20;;;0.80;;
80127;SDS011;69440;52.118;5.408;2023-08-08T14:28:23;3.25;;;0.80;;
80127;SDS011;69440;52.118;5.408;2023-08-08T14:30:53;3.42;;;0.77;;
80127;SDS011;69440;52.118;5.408;2023-08-08T14:33:19;3.08;;;1.13;;
80127;SDS011;69440;52.118;5.408;2023-08-08T14:35:46;3.35;;;0.98;;
80127;SDS011;69440;52.118;5.408;2023-08-08T14:38:12;3.83;;;0.77;;
80127;SDS011;69440;52.118;5.408;2023-08-08T14:40:39;1.80;;;0.70;;
80127;SDS011;69440;52.118;5.408;2023-08-08T14:43:06;2.10;;;0.70;;
80127;SDS011;69440;52.118;5.408;2023-08-08T14:45:36;2.25;;;0.77;;
80127;SDS011;69440;52.118;5.408;2023-08-08T14:48:07;1.83;;;0.90;;
80127;SDS011;69440;52.118;5.408;2023-08-08T14:50:33;2.25;;;0.80;;